Time;durP1;ratioP1;P1;durP2;ratioP2;P2;SDS_P1;SDS_P2;PMS_P1;PMS_P2;Temp;Humidity;BMP_temperature;BMP_pressure;BME280_temperature;BME280_humidity;BME280_pressure;Samples;Min_cycle;Max_cycle;Signal;HPM_P1;HPM_P2
2023/07/03 00:00:17;;;;;;;17.58;6.40;;;;;;;20.52;64.19;99773.56;5048123;28;20060;-67
2023/07/03 00:02:45;;;;;;;15.52;7.07;;;;;;;20.54;64.39;99776.16;5048675;28;20033;-66
2023/07/03 00:05:10;;;;;;;16.55;6.43;;;;;;;20.50;64.43;99759.31;5047167;28;20196;-67
2023/07/03 00:07:37;;;;;;;16.40;6.32;;;;;;;20.57;63.98;99779.47;5049860;28;20028;-67
2023/07/03 00:10:04;;;;;;;14.85;5.50;;;;;;;20.60;63.29;99781.06;5052079;28;20056;-67
2023/07/03 00:12:30;;;;;;;14.18;5.85;;;;;;;20.62;63.74;99774.59;5048527;28;20031;-67
2023/07/03 00:14:56;;;;;;;14.95;5.72;;;;;;;20.63;64.15;99781.69;5051422;28;20473;-67
2023/07/03 00:17:21;;;;;;;14.48;6.97;;;;;;;20.56;63.45;99761.53;5050679;28;20040;-67
2023/07/03 00:19:47;;;;;;;13.35;6.47;;;;;;;20.65;63.92;99774.34;5049930;28;20061;-67
2023/07/03 00:22:12;;;;;;;14.02;6.80;;;;;;;20.68;64.38;99774.09;5050276;28;20075;-67
2023/07/03 00:24:38;;;;;;;19.73;6.10;;;;;;;20.69;64.13;99777.69;5050858;28;20091;-68
2023/07/03 00:27:03;;;;;;;15.07;6.30;;;;;;;20.69;64.31;99781.22;5050122;28;20117;-67
2023/07/03 00:29:31;;;;;;;13.13;5.95;;;;;;;20.69;64.98;99778.50;5051301;28;20465;-68
2023/07/03 00:31:57;;;;;;;18.30;6.57;;;;;;;20.70;65.21;99780.25;5050486;28;20027;-66
2023/07/03 00:34:22;;;;;;;15.15;6.05;;;;;;;20.70;65.44;99784.78;5050911;28;20503;-67
2023/07/03 00:36:48;;;;;;;13.32;6.47;;;;;;;20.71;65.95;99779.25;5048659;28;20025;-68
2023/07/03 00:39:14;;;;;;;16.17;6.05;;;;;;;20.75;65.22;99778.06;5050488;28;20098;-67
2023/07/03 00:41:40;;;;;;;16.08;6.40;;;;;;;20.73;64.20;99777.31;5043106;28;20112;-67
2023/07/03 00:44:11;;;;;;;14.82;6.07;;;;;;;20.78;64.56;99774.25;5037956;28;20579;-67
2023/07/03 00:46:39;;;;;;;18.33;7.07;;;;;;;20.80;64.25;99773.16;5030624;28;20107;-66
2023/07/03 00:49:04;;;;;;;15.93;6.05;;;;;;;20.80;64.06;99766.88;5037345;28;20021;-67
2023/07/03 00:51:30;;;;;;;14.80;6.10;;;;;;;20.80;64.50;99777.69;5036207;28;20040;-67
2023/07/03 00:53:56;;;;;;;15.50;6.82;;;;;;;20.82;64.48;99776.56;5030753;28;20732;-67
2023/07/03 00:56:22;;;;;;;14.88;6.18;;;;;;;20.84;65.03;99774.63;5048481;28;20028;-67
2023/07/03 00:58:47;;;;;;;13.90;6.15;;;;;;;20.83;64.29;99772.91;5050883;28;20059;-68
2023/07/03 01:04:40;;;;;;;17.23;7.00;;;;;;;20.75;64.71;99764.53;5032292;28;20048;-67
2023/07/03 01:07:12;;;;;;;15.43;5.45;;;;;;;20.81;64.69;99769.47;5038323;28;20131;-66
2023/07/03 01:09:45;;;;;;;15.35;6.38;;;;;;;20.75;64.05;99769.94;5051062;28;20412;-67
2023/07/03 01:12:12;;;;;;;13.52;5.90;;;;;;;20.77;64.02;99770.66;5049179;28;20029;-67
2023/07/03 01:14:41;;;;;;;14.35;5.70;;;;;;;20.77;63.63;99772.53;5049596;28;20078;-67
2023/07/03 01:17:11;;;;;;;18.73;6.65;;;;;;;20.80;63.40;99770.44;5049877;28;20025;-67
2023/07/03 01:19:40;;;;;;;17.33;6.38;;;;;;;20.81;64.02;99771.28;5048404;28;20061;-67
2023/07/03 01:22:23;;;;;;;13.35;5.78;;;;;;;20.81;64.17;99780.28;5044403;28;20037;-67
2023/07/03 01:24:57;;;;;;;15.13;6.22;;;;;;;20.84;64.42;99771.91;5036297;28;20099;-67
2023/07/03 01:27:23;;;;;;;;;;;;;;;20.84;64.11;99773.75;5051575;28;20032;-66
2023/07/03 01:29:51;;;;;;;14.52;5.65;;;;;;;20.81;63.14;99769.47;5050243;28;19932;-67
2023/07/03 01:32:20;;;;;;;16.08;5.70;;;;;;;20.84;62.98;99771.03;5050122;28;20769;-67
2023/07/03 01:34:47;;;;;;;12.43;5.53;;;;;;;20.81;62.56;99771.28;5049691;28;20078;-67
2023/07/03 01:37:14;;;;;;;13.57;7.05;;;;;;;20.85;62.82;99765.53;5048747;28;20369;-67
2023/07/03 01:39:43;;;;;;;15.00;6.22;;;;;;;20.88;63.40;99770.72;5049551;28;20075;-67
2023/07/03 01:42:10;;;;;;;16.90;6.20;;;;;;;20.82;63.01;99757.66;5043149;28;20033;-68
2023/07/03 01:44:36;;;;;;;14.20;6.40;;;;;;;20.87;63.02;99763.56;5048825;28;20048;-67
2023/07/03 01:47:11;;;;;;;16.15;6.53;;;;;;;20.88;62.69;99765.31;5041679;28;20056;-67
2023/07/03 01:49:36;;;;;;;13.30;5.50;;;;;;;20.89;62.99;99761.59;5041041;28;20056;-67
2023/07/03 01:52:43;;;;;;;16.83;5.78;;;;;;;20.85;63.82;99764.69;5050153;28;20405;-67
2023/07/03 01:55:22;;;;;;;13.48;5.43;;;;;;;20.81;63.36;99758.63;5037090;28;20153;-66
2023/07/03 01:57:58;;;;;;;14.35;5.30;;;;;;;20.81;62.68;99764.06;5049139;28;20104;-67
2023/07/03 02:00:32;;;;;;;16.10;6.13;;;;;;;20.83;63.44;99762.09;5030204;28;20057;-67
2023/07/03 02:03:02;;;;;;;14.52;5.63;;;;;;;20.84;63.66;99768.34;5033395;28;20079;-67
2023/07/03 02:05:30;;;;;;;19.35;5.88;;;;;;;20.80;63.66;99762.34;5043301;28;20408;-67
2023/07/03 02:07:59;;;;;;;14.15;5.72;;;;;;;20.79;63.91;99768.72;5032565;28;20051;-67
2023/07/03 02:10:25;;;;;;;16.20;6.60;;;;;;;20.78;63.43;99766.13;5047041;28;20126;-66
2023/07/03 02:12:51;;;;;;;15.07;5.90;;;;;;;20.79;63.80;99773.25;5029266;28;20767;-67
2023/07/03 02:15:16;;;;;;;12.43;5.65;;;;;;;20.78;63.85;99769.69;5044898;28;20378;-67
2023/07/03 02:17:42;;;;;;;13.43;6.05;;;;;;;20.79;63.57;99774.13;5048308;28;20062;-67
2023/07/03 02:20:14;;;;;;;15.85;6.35;;;;;;;20.82;63.78;99770.31;5048641;28;20066;-66
2023/07/03 02:22:41;;;;;;;16.55;4.85;;;;;;;20.80;64.48;99775.84;5048568;28;20486;-67
2023/07/03 02:25:07;;;;;;;10.70;5.35;;;;;;;20.80;64.43;99772.28;5049425;28;20021;-66
2023/07/03 02:27:32;;;;;;;19.80;7.07;;;;;;;20.77;63.83;99765.25;5048466;28;20438;-67
2023/07/03 02:29:58;;;;;;;18.10;6.38;;;;;;;20.76;64.56;99766.25;5048149;28;20084;-67
2023/07/03 02:32:32;;;;;;;13.07;6.30;;;;;;;20.76;64.38;99768.94;5048546;28;20104;-67
2023/07/03 02:34:58;;;;;;;14.77;5.88;;;;;;;20.77;63.96;99761.72;5047842;28;20485;-67
2023/07/03 02:37:23;;;;;;;16.23;5.53;;;;;;;20.77;64.57;99761.72;5047981;28;20025;-66
2023/07/03 02:39:48;;;;;;;13.10;5.65;;;;;;;20.73;64.19;99766.50;5048378;28;20021;-67
2023/07/03 02:42:14;;;;;;;16.25;5.72;;;;;;;20.73;64.59;99766.50;5048209;28;20036;-67
2023/07/03 02:44:39;;;;;;;15.48;5.22;;;;;;;20.72;64.76;99769.31;5048506;28;20080;-67
2023/07/03 02:47:05;;;;;;;13.38;6.40;;;;;;;20.68;64.04;99757.88;5049189;28;20028;-67
2023/07/03 02:49:30;;;;;;;15.35;5.40;;;;;;;20.70;64.66;99761.34;5046254;28;20380;-67
2023/07/03 02:51:56;;;;;;;15.95;5.88;;;;;;;20.69;64.25;99765.00;5029509;28;20214;-67
2023/07/03 02:54:21;;;;;;;16.55;6.15;;;;;;;20.70;64.75;99755.94;5032127;28;20030;-66
2023/07/03 02:56:46;;;;;;;12.43;5.80;;;;;;;20.71;64.16;99768.44;5049534;28;20496;-67
2023/07/03 02:59:14;;;;;;;13.48;5.70;;;;;;;20.68;64.18;99757.00;5044858;28;20025;-67
2023/07/03 03:01:39;;;;;;;12.52;5.88;;;;;;;20.71;63.84;99757.63;5029092;28;20029;-67
2023/07/03 03:04:05;;;;;;;13.93;5.40;;;;;;;20.66;63.97;99748.16;5036319;28;20036;-67
2023/07/03 03:06:31;;;;;;;13.85;5.50;;;;;;;20.72;63.45;99753.94;5047890;28;20052;-67
2023/07/03 03:08:57;;;;;;;25.85;6.80;;;;;;;20.74;64.74;99757.38;5048138;28;20033;-67
2023/07/03 03:11:22;;;;;;;17.30;5.78;;;;;;;20.71;64.51;99752.22;5047049;28;20029;-67
2023/07/03 03:13:48;;;;;;;16.42;5.78;;;;;;;20.70;64.52;99753.22;5047982;28;20365;-67
2023/07/03 03:16:13;;;;;;;18.27;7.00;;;;;;;20.63;64.32;99757.38;5046676;28;20040;-67
2023/07/03 03:18:38;;;;;;;14.23;5.50;;;;;;;20.65;64.21;99752.72;5048632;28;20495;-67
2023/07/03 03:21:04;;;;;;;11.82;5.65;;;;;;;20.64;64.75;99753.69;5048745;28;20033;-67
2023/07/03 03:23:29;;;;;;;15.10;5.72;;;;;;;20.61;64.53;99756.63;5046492;28;20039;-66
2023/07/03 03:25:55;;;;;;;14.75;5.45;;;;;;;20.68;64.96;99752.47;5046746;28;20025;-67
2023/07/03 03:28:20;;;;;;;14.73;5.53;;;;;;;20.69;64.19;99759.59;5046390;28;20091;-67
2023/07/03 03:30:46;;;;;;;13.43;6.18;;;;;;;20.65;64.89;99747.31;5046258;28;20126;-67
2023/07/03 03:33:11;;;;;;;12.90;5.05;;;;;;;20.64;64.34;99753.69;5046084;28;20254;-67
2023/07/03 03:35:37;;;;;;;13.93;5.15;;;;;;;20.62;64.17;99757.50;5045457;28;20622;-67
2023/07/03 03:38:02;;;;;;;13.85;6.03;;;;;;;20.58;64.34;99756.00;5046107;28;20034;-67
2023/07/03 03:40:28;;;;;;;10.68;5.03;;;;;;;20.59;64.37;99758.59;5047584;28;20577;-67
2023/07/03 03:42:54;;;;;;;14.07;5.00;;;;;;;20.59;65.04;99757.75;5048830;28;20033;-67
2023/07/03 03:45:19;;;;;;;13.63;4.93;;;;;;;20.56;64.03;99763.38;5050629;28;20611;-67
2023/07/03 03:47:47;;;;;;;11.50;5.10;;;;;;;20.57;64.05;99757.88;5049853;28;20048;-67
2023/07/03 03:50:13;;;;;;;13.48;5.20;;;;;;;20.57;64.78;99752.47;5048965;28;20032;-67
2023/07/03 03:52:39;;;;;;;14.32;5.25;;;;;;;20.41;65.33;99732.97;5050078;28;20051;-67
2023/07/03 03:55:04;;;;;;;13.90;5.60;;;;;;;20.43;64.80;99728.31;5049612;28;20489;-67
2023/07/03 03:57:30;;;;;;;12.18;5.13;;;;;;;20.55;64.44;99757.13;5050906;28;20036;-67
2023/07/03 03:59:55;;;;;;;13.05;4.85;;;;;;;20.53;63.88;99769.00;5043245;28;20608;-66
2023/07/03 04:02:21;;;;;;;11.55;4.88;;;;;;;20.51;64.27;99763.72;5043016;28;20037;-67
2023/07/03 04:04:46;;;;;;;18.17;4.97;;;;;;;20.53;64.26;99769.88;5030824;28;20068;-67
2023/07/03 04:07:12;;;;;;;13.52;5.70;;;;;;;20.56;64.01;99775.03;5042113;28;20033;-67
2023/07/03 04:09:37;;;;;;;10.77;4.75;;;;;;;20.60;64.69;99776.53;5049926;28;20028;-67
2023/07/03 04:12:03;;;;;;;15.07;4.85;;;;;;;20.62;64.69;99781.81;5044764;28;20017;-67
2023/07/03 04:14:29;;;;;;;11.77;5.07;;;;;;;20.66;65.40;99791.41;5048103;28;20036;-67
2023/07/03 04:16:57;;;;;;;10.13;4.93;;;;;;;20.67;65.85;99788.56;5044094;28;20025;-67
2023/07/03 04:19:24;;;;;;;13.43;4.68;;;;;;;20.65;65.44;99790.56;5042799;28;20038;-67
2023/07/03 04:21:49;;;;;;;14.27;5.32;;;;;;;20.65;66.22;99793.25;5030598;28;20418;-67
2023/07/03 04:24:14;;;;;;;13.23;5.07;;;;;;;20.64;65.65;99785.28;5030397;28;20112;-66
2023/07/03 04:26:41;;;;;;;13.32;5.32;;;;;;;20.65;65.02;99785.16;5047236;28;20032;-67
2023/07/03 04:29:07;;;;;;;13.43;4.93;;;;;;;20.69;64.70;99792.03;5035368;28;20029;-66
2023/07/03 04:31:33;;;;;;;13.27;5.15;;;;;;;20.74;64.99;99799.81;5044436;28;20047;-67
2023/07/03 04:33:59;;;;;;;14.50;5.00;;;;;;;20.75;64.68;99796.97;5049470;28;20033;-67
2023/07/03 04:36:25;;;;;;;13.05;5.25;;;;;;;20.79;65.20;99795.75;5048982;28;20025;-67
2023/07/03 04:38:57;;;;;;;12.98;5.10;;;;;;;20.76;64.28;99789.72;5045239;28;20034;-67
2023/07/03 04:41:23;;;;;;;12.57;5.25;;;;;;;20.80;65.69;99808.31;5049221;28;20077;-67
2023/07/03 04:43:51;;;;;;;11.95;4.35;;;;;;;20.82;65.19;99798.19;5049269;28;20077;-67
2023/07/03 04:46:25;;;;;;;14.25;5.35;;;;;;;20.84;64.42;99807.06;5049143;28;20496;-67
2023/07/03 04:48:51;;;;;;;9.80;4.38;;;;;;;20.89;64.73;99806.69;5049119;28;20499;-67
2023/07/03 04:51:17;;;;;;;10.57;4.68;;;;;;;20.91;65.26;99802.91;5048360;28;20126;-67
2023/07/03 04:53:42;;;;;;;11.48;4.38;;;;;;;20.88;64.73;99807.69;5047102;28;20056;-67
2023/07/03 04:56:10;;;;;;;14.70;4.90;;;;;;;20.91;64.36;99813.72;5046131;28;20051;-66
2023/07/03 04:58:35;;;;;;;10.95;4.72;;;;;;;20.95;64.64;99815.19;5047880;28;20025;-67
2023/07/03 05:01:01;;;;;;;9.95;4.75;;;;;;;20.94;64.86;99813.47;5048978;28;20033;-66
2023/07/03 05:03:26;;;;;;;12.95;5.75;;;;;;;20.97;64.92;99808.81;5049742;28;20040;-67
2023/07/03 05:05:51;;;;;;;10.02;4.32;;;;;;;20.94;65.35;99823.44;5049642;28;20140;-67
2023/07/03 05:08:17;;;;;;;11.73;5.13;;;;;;;20.92;65.01;99820.84;5048981;28;20036;-67
2023/07/03 05:10:42;;;;;;;13.90;5.05;;;;;;;20.94;64.98;99823.44;5049710;28;20063;-67
2023/07/03 05:13:08;;;;;;;16.77;5.15;;;;;;;20.95;64.82;99831.41;5045534;28;20013;-67
2023/07/03 05:15:33;;;;;;;9.60;5.05;;;;;;;21.00;65.38;99838.34;5049857;28;20025;-67
2023/07/03 05:17:59;;;;;;;11.90;5.05;;;;;;;21.03;65.00;99840.81;5049416;28;20037;-67
2023/07/03 05:20:25;;;;;;;15.05;4.57;;;;;;;21.08;65.36;99842.19;5047356;28;20029;-66
2023/07/03 05:22:51;;;;;;;15.68;5.50;;;;;;;21.08;65.26;99844.91;5049018;28;20056;-66
2023/07/03 05:25:17;;;;;;;12.57;5.03;;;;;;;21.06;65.26;99841.44;5044105;28;20112;-67
2023/07/03 05:27:43;;;;;;;12.07;4.95;;;;;;;21.09;65.89;99843.06;5029689;28;20499;-67
2023/07/03 05:30:10;;;;;;;9.77;4.72;;;;;;;21.10;65.26;99839.38;5037458;28;20029;-67
2023/07/03 05:32:36;;;;;;;12.45;5.03;;;;;;;21.16;65.10;99828.06;5050704;28;20032;-67
2023/07/03 05:35:04;;;;;;;11.40;5.13;;;;;;;21.24;64.71;99844.53;5050492;28;20048;-67
2023/07/03 05:37:30;;;;;;;19.90;5.63;;;;;;;21.31;64.72;99843.94;5050241;28;20112;-67
2023/07/03 05:39:55;;;;;;;11.13;4.78;;;;;;;21.34;65.89;99850.94;5049185;28;20064;-67
2023/07/03 05:42:21;;;;;;;12.10;5.43;;;;;;;21.37;65.40;99858.81;5031744;28;20021;-67
2023/07/03 05:44:47;;;;;;;15.02;5.60;;;;;;;21.40;65.31;99853.19;5041387;28;20048;-67
2023/07/03 05:47:14;;;;;;;14.52;5.65;;;;;;;21.45;64.77;99862.66;5048933;28;20688;-67
2023/07/03 05:49:39;;;;;;;10.52;4.63;;;;;;;21.48;64.06;99861.56;5047003;28;20469;-67
2023/07/03 05:52:06;;;;;;;11.68;5.35;;;;;;;21.53;64.50;99865.59;5047793;28;20057;-67
2023/07/03 05:54:31;;;;;;;11.60;4.88;;;;;;;21.60;64.25;99860.56;5047418;28;20099;-67
2023/07/03 05:57:00;;;;;;;16.70;6.32;;;;;;;21.65;64.32;99880.00;5048648;28;20037;-67
2023/07/03 05:59:26;;;;;;;12.90;4.75;;;;;;;21.70;64.92;99877.78;5048367;28;20128;-67
2023/07/03 06:01:54;;;;;;;15.02;5.65;;;;;;;21.70;64.46;99877.78;5050147;28;20086;-67
2023/07/03 06:04:22;;;;;;;10.68;4.97;;;;;;;21.63;63.52;99890.94;5048379;28;20052;-67
2023/07/03 06:06:57;;;;;;;11.00;5.30;;;;;;;21.69;64.01;99889.63;5033403;28;20417;-67
2023/07/03 06:09:23;;;;;;;12.82;5.80;;;;;;;21.61;62.89;99900.19;5046138;28;20079;-67
2023/07/03 06:11:48;;;;;;;13.88;4.97;;;;;;;21.66;63.55;99901.53;5043002;28;20040;-67
2023/07/03 06:14:17;;;;;;;17.70;6.03;;;;;;;21.72;64.16;99908.31;5028730;28;20036;-67
2023/07/03 06:16:46;;;;;;;12.60;4.82;;;;;;;21.75;62.41;99908.06;5035533;28;20041;-67
2023/07/03 06:19:13;;;;;;;12.65;4.70;;;;;;;21.62;60.71;99913.59;5032688;28;20087;-67
2023/07/03 06:21:39;;;;;;;12.13;4.90;;;;;;;21.61;60.79;99922.72;5034088;28;20036;-67
2023/07/03 06:24:09;;;;;;;10.63;4.35;;;;;;;21.60;59.79;99925.53;5044439;28;20396;-67
2023/07/03 06:26:38;;;;;;;16.65;4.60;;;;;;;21.54;59.01;99926.91;5029730;28;20029;-67
2023/07/03 06:29:03;;;;;;;10.50;4.10;;;;;;;21.50;58.21;99919.97;5029698;28;20021;-67
2023/07/03 06:31:29;;;;;;;11.65;4.38;;;;;;;21.53;57.16;99924.31;5033470;28;20045;-67
2023/07/03 06:33:54;;;;;;;10.57;3.65;;;;;;;21.55;57.60;99919.59;5046595;28;20031;-67
2023/07/03 06:36:21;;;;;;;13.38;4.03;;;;;;;21.66;58.15;99925.06;5032001;28;20651;-67
2023/07/03 06:38:53;;;;;;;13.55;4.13;;;;;;;21.58;56.15;99922.09;5033228;28;20815;-67
2023/07/03 06:41:20;;;;;;;8.93;3.35;;;;;;;21.72;56.91;99928.13;5030272;28;20029;-67
2023/07/03 06:43:46;;;;;;;11.32;4.18;;;;;;;21.82;56.94;99937.28;5037906;28;20040;-67
2023/07/03 06:46:11;;;;;;;11.88;3.42;;;;;;;21.91;55.81;99927.56;5036533;28;20025;-67
2023/07/03 06:48:37;;;;;;;13.25;3.80;;;;;;;21.97;55.26;99932.50;5028332;28;20017;-67
2023/07/03 06:51:04;;;;;;;8.70;3.53;;;;;;;22.07;56.22;99933.47;5028168;28;20048;-67
2023/07/03 06:53:30;;;;;;;11.13;3.47;;;;;;;22.09;54.74;99935.06;5031230;28;20077;-67
2023/07/03 06:55:57;;;;;;;12.00;3.35;;;;;;;22.11;54.72;99940.34;5028418;28;20697;-67
2023/07/03 06:58:23;;;;;;;7.95;3.10;;;;;;;22.03;54.53;99945.53;5030583;28;20041;-67
2023/07/03 07:00:49;;;;;;;9.85;3.40;;;;;;;22.07;54.28;99944.31;5029199;28;20025;-66
2023/07/03 07:03:14;;;;;;;12.95;3.67;;;;;;;22.21;55.80;99948.63;5047760;28;20370;-67
2023/07/03 07:05:39;;;;;;;10.35;3.20;;;;;;;22.31;56.01;99944.13;5047732;28;20045;-67
2023/07/03 07:08:05;;;;;;;6.65;2.90;;;;;;;22.27;55.07;99943.56;5040402;28;20366;-67
2023/07/03 07:10:30;;;;;;;8.68;3.03;;;;;;;22.38;55.62;99945.38;5037993;28;20021;-67
2023/07/03 07:12:56;;;;;;;9.00;3.40;;;;;;;22.57;55.18;99942.91;5046595;28;20021;-67
2023/07/03 07:15:21;;;;;;;12.30;3.22;;;;;;;22.64;54.80;99947.69;5044833;28;20112;-67
2023/07/03 07:17:47;;;;;;;9.45;2.90;;;;;;;22.80;54.64;99936.44;5039333;28;20466;-67
2023/07/03 07:20:12;;;;;;;7.22;3.22;;;;;;;22.82;52.67;99940.72;5045191;28;20036;-67
2023/07/03 07:22:37;;;;;;;9.30;2.92;;;;;;;22.81;53.47;99933.59;5050275;28;20381;-67
2023/07/03 07:25:03;;;;;;;10.57;2.80;;;;;;;22.87;52.35;99932.19;5048408;28;20036;-67
2023/07/03 07:27:28;;;;;;;13.00;3.70;;;;;;;23.01;53.40;99946.34;5047743;28;20022;-67
2023/07/03 07:29:54;;;;;;;10.35;3.13;;;;;;;23.02;52.58;99942.63;5033193;28;20771;-67
2023/07/03 07:32:21;;;;;;;9.13;3.50;;;;;;;23.09;51.52;99943.84;5033201;28;20053;-66
2023/07/03 07:34:47;;;;;;;8.85;3.05;;;;;;;23.13;51.52;99939.00;5034644;28;20044;-67
2023/07/03 07:37:13;;;;;;;10.55;3.58;;;;;;;23.25;51.83;99938.81;5033010;28;20029;-67
2023/07/03 07:39:42;;;;;;;10.75;3.10;;;;;;;23.38;51.55;99933.22;5043290;28;20024;-67
2023/07/03 07:42:07;;;;;;;10.18;2.58;;;;;;;23.47;51.37;99928.84;5040054;28;20029;-67
2023/07/03 07:44:33;;;;;;;11.10;3.00;;;;;;;23.62;50.34;99931.09;5034671;28;20377;-66
2023/07/03 07:46:59;;;;;;;7.97;3.30;;;;;;;23.89;50.14;99927.78;5050520;28;20031;-67
2023/07/03 07:49:24;;;;;;;10.98;2.42;;;;;;;24.07;48.76;99932.47;5051332;28;20032;-67
2023/07/03 07:51:50;;;;;;;9.38;2.85;;;;;;;24.12;48.44;99930.22;5050114;28;20143;-67
2023/07/03 07:54:15;;;;;;;10.75;3.55;;;;;;;24.16;47.68;99926.25;5046537;28;20025;-67
2023/07/03 07:56:41;;;;;;;9.30;2.78;;;;;;;24.23;49.00;99937.41;5051246;28;20029;-66
2023/07/03 07:59:06;;;;;;;13.75;3.63;;;;;;;24.23;48.94;99930.09;5051305;28;20071;-66
2023/07/03 08:01:32;;;;;;;9.90;3.03;;;;;;;24.51;49.27;99923.88;5038762;28;20025;-67
2023/07/03 08:03:57;;;;;;;13.40;3.92;;;;;;;24.85;48.83;99929.84;5040013;28;20063;-66
2023/07/03 08:06:22;;;;;;;12.20;3.70;;;;;;;25.02;48.18;99931.88;5045580;28;20090;-67
2023/07/03 08:08:49;;;;;;;10.48;3.47;;;;;;;24.92;46.17;99925.56;5050649;28;20040;-67
2023/07/03 08:11:15;;;;;;;16.00;4.57;;;;;;;24.89;48.49;99925.84;5050351;28;20029;-67
2023/07/03 08:13:41;;;;;;;15.13;4.38;;;;;;;24.85;47.43;99931.69;5050583;28;20435;-67
2023/07/03 08:16:07;;;;;;;12.18;4.13;;;;;;;25.38;46.33;99923.00;5042657;28;20025;-67
2023/07/03 08:18:33;;;;;;;13.50;4.90;;;;;;;26.26;45.93;99922.59;5038032;28;20021;-67
2023/07/03 08:20:58;;;;;;;11.85;4.15;;;;;;;27.08;44.69;99929.69;5040418;28;20485;-67
2023/07/03 08:23:24;;;;;;;8.70;3.65;;;;;;;27.09;43.48;99921.31;5037548;28;20025;-66
2023/07/03 08:25:54;;;;;;;12.15;3.80;;;;;;;27.13;43.83;99927.34;5035260;28;20039;-67
2023/07/03 08:28:21;;;;;;;14.95;4.25;;;;;;;26.74;43.57;99925.91;5042415;28;20029;-66
2023/07/03 08:30:46;;;;;;;11.00;4.35;;;;;;;26.26;44.52;99919.88;5035144;28;20802;-67
2023/07/03 08:33:13;;;;;;;11.23;4.80;;;;;;;26.20;44.66;99923.19;5031860;28;20108;-66
2023/07/03 08:35:40;;;;;;;13.27;4.38;;;;;;;26.59;45.13;99908.31;5031200;28;20026;-66
2023/07/03 08:38:06;;;;;;;9.80;4.20;;;;;;;26.75;44.84;99922.19;5035316;28;20038;-68
2023/07/03 08:40:31;;;;;;;11.43;4.00;;;;;;;26.84;44.67;99919.38;5033868;28;20067;-63
2023/07/03 08:42:59;;;;;;;11.55;4.47;;;;;;;27.34;43.65;99914.22;5038108;28;20024;-63
2023/07/03 08:45:37;;;;;;;12.90;3.85;;;;;;;27.15;41.67;99922.56;5032020;28;20040;-64
2023/07/03 08:48:07;;;;;;;13.70;4.20;;;;;;;26.85;43.10;99922.97;5032018;28;20547;-66
2023/07/03 08:50:34;;;;;;;9.77;3.40;;;;;;;26.66;42.35;99929.41;5035893;28;20037;-67
2023/07/03 08:53:03;;;;;;;8.55;3.67;;;;;;;26.42;43.19;99930.97;5038363;28;20043;-67
2023/07/03 08:55:40;;;;;;;8.43;3.47;;;;;;;26.49;43.34;99921.16;5044878;28;20036;-66
2023/07/03 08:58:07;;;;;;;10.18;3.70;;;;;;;26.34;43.23;99922.69;5044560;28;20506;-64
2023/07/03 09:00:39;;;;;;;10.65;3.67;;;;;;;26.38;44.03;99922.22;5024552;28;20030;-67
2023/07/03 09:03:19;;;;;;;9.43;3.83;;;;;;;26.30;43.64;99935.78;5035421;28;20032;-66
2023/07/03 09:06:33;;;;;;;11.35;3.33;;;;;;;26.19;45.44;99926.91;5033846;28;20049;-67
2023/07/03 09:09:27;;;;;;;15.47;3.80;;;;;;;25.78;45.96;99926.31;5038962;28;20044;-66
2023/07/03 09:12:18;;;;;;;10.65;4.20;;;;;;;25.51;47.89;99934.44;5043354;28;20035;-67
2023/07/03 09:14:53;;;;;;;10.57;3.70;;;;;;;25.49;47.79;99935.56;5036074;28;20041;-68
2023/07/03 09:17:19;;;;;;;7.40;2.30;;;;;;;25.34;46.93;99942.44;5030130;28;20029;-67
2023/07/03 09:19:48;;;;;;;9.18;2.42;;;;;;;25.24;45.33;99942.44;5045247;28;20112;-66
2023/07/03 09:22:40;;;;;;;6.15;2.08;;;;;;;25.14;46.67;99946.19;5030298;28;20104;-67
2023/07/03 09:25:14;;;;;;;10.50;2.47;;;;;;;25.48;46.80;99945.63;5045641;28;20025;-67
2023/07/03 09:27:41;;;;;;;7.50;1.95;;;;;;;25.86;45.94;99950.97;5032121;28;20222;-67
2023/07/03 09:30:11;;;;;;;5.95;1.90;;;;;;;26.11;45.51;99954.09;5030465;28;20101;-67
2023/07/03 09:32:37;;;;;;;6.82;1.85;;;;;;;26.03;44.61;99963.00;5031966;28;20035;-67
2023/07/03 09:35:12;;;;;;;11.70;2.67;;;;;;;25.88;45.78;99965.31;5044054;28;20033;-67
2023/07/03 09:37:40;;;;;;;8.18;1.98;;;;;;;25.82;44.70;99967.75;5047457;28;20031;-67
2023/07/03 09:40:12;;;;;;;4.47;1.80;;;;;;;25.68;43.99;99968.25;5046991;28;20358;-66
2023/07/03 09:42:40;;;;;;;6.15;2.10;;;;;;;25.98;44.26;99966.13;5032258;28;20017;-67
2023/07/03 09:45:13;;;;;;;6.78;2.33;;;;;;;26.32;44.33;99968.34;5029846;28;20029;-67
2023/07/03 09:47:41;;;;;;;11.82;1.98;;;;;;;26.55;44.17;99972.38;5032689;28;20517;-66
2023/07/03 09:50:08;;;;;;;8.30;2.13;;;;;;;26.81;44.01;99968.81;5034795;28;20022;-67
2023/07/03 09:52:41;;;;;;;11.02;2.60;;;;;;;27.16;44.64;99976.19;5030199;28;20037;-66
2023/07/03 09:55:07;;;;;;;5.53;1.77;;;;;;;26.97;43.56;99970.84;5033959;28;20035;-66
2023/07/03 09:57:34;;;;;;;7.53;2.10;;;;;;;27.01;44.30;99970.41;5038522;28;20021;-67
2023/07/03 10:00:11;;;;;;;5.85;2.03;;;;;;;27.11;43.25;99978.53;5039729;28;20027;-67
2023/07/03 10:02:44;;;;;;;4.72;1.85;;;;;;;27.08;43.65;99989.75;5110197;27;20129;-67
2023/07/03 10:05:15;;;;;;;4.50;2.05;;;;;;;27.11;42.80;99983.97;5109300;28;20035;-67
2023/07/03 10:07:43;;;;;;;8.23;2.70;;;;;;;27.31;42.19;99993.78;5099999;28;20028;-66
2023/07/03 10:10:12;;;;;;;7.00;2.20;;;;;;;27.19;43.13;99986.78;5103235;28;20026;-67
2023/07/03 10:12:54;;;;;;;7.57;1.83;;;;;;;27.37;42.09;99978.59;5105663;28;20506;-67
2023/07/03 10:15:25;;;;;;;7.72;2.47;;;;;;;27.62;41.29;99995.06;5098374;28;20673;-68
2023/07/03 10:17:56;;;;;;;7.68;2.20;;;;;;;27.43;42.31;99994.41;5095496;28;20030;-67
2023/07/03 10:20:35;;;;;;;6.32;2.08;;;;;;;27.66;42.42;99991.00;5103979;28;20035;-67
2023/07/03 10:23:03;;;;;;;3.78;1.70;;;;;;;27.77;42.68;100004.44;5104935;28;20084;-66
2023/07/03 10:25:39;;;;;;;6.30;2.30;;;;;;;27.57;42.38;99997.41;5093377;28;20047;-67
2023/07/03 10:28:12;;;;;;;6.85;1.92;;;;;;;27.47;41.50;99991.19;5090800;28;20077;-67
2023/07/03 10:30:39;;;;;;;4.65;2.10;;;;;;;27.45;42.00;99986.88;5087658;28;20332;-67
2023/07/03 10:33:18;;;;;;;8.73;1.88;;;;;;;27.45;42.38;99993.22;5088391;28;20034;-67
2023/07/03 10:35:47;;;;;;;7.32;2.38;;;;;;;27.70;41.67;99986.06;5092975;28;20076;-68
2023/07/03 10:38:26;;;;;;;7.85;2.40;;;;;;;28.01;42.16;99985.47;5103072;28;20030;-67
2023/07/03 10:41:24;;;;;;;7.68;2.33;;;;;;;28.08;39.82;99986.56;5095015;28;20031;-67
2023/07/03 10:43:56;;;;;;;5.07;2.05;;;;;;;28.28;40.87;99987.19;5082741;28;20039;-67
2023/07/03 10:46:33;;;;;;;6.13;2.03;;;;;;;29.04;40.24;99985.28;5088557;28;20024;-67
2023/07/03 10:49:02;;;;;;;4.28;1.65;;;;;;;29.17;39.17;99980.19;5086272;28;20031;-67
2023/07/03 10:51:39;;;;;;;5.35;1.63;;;;;;;29.00;39.12;99975.66;5090905;28;20043;-66
2023/07/03 10:54:18;;;;;;;5.72;2.35;;;;;;;28.93;39.81;99977.38;5101188;28;20046;-67
2023/07/03 10:56:47;;;;;;;6.35;2.00;;;;;;;28.71;39.64;99978.84;5095643;28;20106;-67
2023/07/03 10:59:27;;;;;;;6.65;1.95;;;;;;;28.99;38.76;99965.75;5105167;28;20112;-67
2023/07/03 11:02:36;;;;;;;6.80;2.15;;;;;;;29.34;38.70;99966.31;5107636;28;20040;-67
2023/07/03 11:05:18;;;;;;;5.30;1.60;;;;;;;28.98;39.05;99953.09;5080193;28;20075;-67
2023/07/03 11:07:47;;;;;;;6.50;1.58;;;;;;;28.76;40.17;99961.91;5093543;28;20047;-67
2023/07/03 11:10:21;;;;;;;5.15;1.55;;;;;;;28.58;39.82;99952.97;5088704;28;20675;-67
2023/07/03 11:13:04;;;;;;;4.88;1.83;;;;;;;28.32;40.88;99951.09;5082482;28;20105;-67
2023/07/03 11:15:39;;;;;;;7.18;1.90;;;;;;;28.67;39.77;99943.72;5083607;28;20261;-68
2023/07/03 11:18:19;;;;;;;5.25;1.55;;;;;;;29.32;39.06;99929.16;5076033;28;20093;-67
2023/07/03 11:21:11;;;;;;;4.95;1.10;;;;;;;29.58;39.16;99929.84;5083468;28;20925;-67
2023/07/03 11:23:47;;;;;;;5.28;1.55;;;;;;;30.37;37.69;99943.59;5095940;28;20020;-66
2023/07/03 11:26:24;;;;;;;3.90;1.40;;;;;;;30.70;37.48;99928.69;5094234;28;20016;-67
2023/07/03 11:28:53;;;;;;;7.25;1.73;;;;;;;31.28;36.60;99923.53;5076781;28;20158;-67
2023/07/03 11:31:19;;;;;;;7.25;1.65;;;;;;;31.16;34.70;99924.13;5075104;28;20023;-67
2023/07/03 11:33:46;;;;;;;3.17;1.38;;;;;;;30.75;35.89;99916.13;5090387;28;20078;-66
2023/07/03 11:36:34;;;;;;;5.80;1.67;;;;;;;30.75;36.22;99920.75;5102362;28;20478;-67